Latest Weather Observations for Scottsdale

IDT60801

Issued at 10:01 pm EDT Wednesday 4 March 2015 (issued every 30 minutes, with the page automatically refreshed every 10 minutes)

About weather observations | Map of weather stations | Latest weather observations for TAS | Other Formats
Station Details ID: 091219 Name: SCOTTSDALE (WEST MINSTONE ROAD) Lat: -41.17 Lon: 147.49 Height: 197.5 m
Data from the previous 72 hours. | See also: Recent months at Scottsdale
Date/Time
EDT
Temp
°C
App
Temp
°C
Dew
Point
Rel
Hum
%
Delta-T
°C
Wind Press
QNH
hPa
Press
MSL
hPa
Rain
since 9 am
mm
Dir
 
Spd
km/h
Gust
km/h
Spd
kts
Gust
kts
04/10:00pm 13.3 10.3 12.4 94 0.5 WNW 20 32 11 17 1001.3 - 0.2
04/09:30pm 13.7 10.3 11.3 85 1.3 WNW 20 33 11 18 1001.6 - 0.2
04/09:00pm 14.7 11.0 9.5 71 2.7 WNW 19 32 10 17 1001.9 1001.7 0.0
04/08:30pm 14.8 10.8 10.3 74 2.4 WNW 22 35 12 19 1002.2 - 0.0
04/08:00pm 15.0 11.1 10.9 76 2.2 WNW 22 37 12 20 1002.0 - 0.0
04/07:30pm 15.6 10.5 10.6 72 2.7 WNW 28 46 15 25 1002.2 - 0.0
04/07:02pm 16.0 10.5 9.3 64 3.5 WNW 28 48 15 26 1002.6 - 0.0
04/07:00pm 16.0 10.9 9.3 64 3.5 WNW 26 48 14 26 1002.7 - 0.0
04/06:30pm 16.1 11.2 11.3 73 2.6 WNW 28 46 15 25 1002.7 - 0.0
04/06:02pm 16.2 11.0 11.7 74 2.5 WNW 30 54 16 29 1002.8 - 0.0
04/06:00pm 16.2 11.5 11.9 75 2.4 WNW 28 44 15 24 1002.9 1002.6 0.0
04/05:30pm 16.6 11.3 11.1 70 3.0 WNW 30 48 16 26 1003.2 - 0.0
04/05:26pm 16.7 11.7 11.0 69 3.1 WNW 28 48 15 26 1003.2 - 0.0
04/05:00pm 17.5 13.1 11.7 69 3.2 WNW 26 46 14 25 1003.5 - 0.0
04/04:55pm 16.9 12.0 11.4 70 3.0 WNW 28 46 15 25 1003.5 - 0.0
04/04:30pm 17.7 13.1 10.9 64 3.7 W 26 39 14 21 1003.9 - 0.0
04/04:00pm 17.7 12.7 10.9 64 3.7 WNW 28 46 15 25 1003.9 - 0.0
04/03:34pm 18.0 12.7 9.8 58 4.4 WNW 28 46 15 25 1004.2 - 0.0
04/03:30pm 18.5 13.3 10.2 58 4.5 WNW 28 44 15 24 1004.2 - 0.0
04/03:00pm 17.3 12.3 10.9 66 3.5 WNW 28 44 15 24 1004.8 1004.6 0.0
04/02:30pm 16.5 11.5 11.0 70 3.0 WNW 28 46 15 25 1005.3 - 0.0
04/02:07pm 18.0 12.8 10.2 60 4.2 WNW 28 46 15 25 1005.4 - 0.0
04/02:00pm 17.5 12.6 10.0 61 4.0 WNW 26 41 14 22 1005.4 - 0.0
04/01:34pm 17.2 11.8 9.5 60 4.1 WNW 28 48 15 26 1005.5 - 0.0
04/01:30pm 17.5 12.9 9.8 60 4.1 WNW 24 43 13 23 1005.6 - 0.0
04/01:04pm 17.4 12.2 10.1 62 3.9 W 28 46 15 25 1006.0 - 0.0
04/01:00pm 17.0 11.3 9.7 62 3.9 WNW 30 46 16 25 1006.2 - 0.0
04/12:30pm 17.3 11.7 8.9 57 4.4 WNW 28 46 15 25 1006.7 - 0.0
04/12:00pm 17.1 10.5 8.6 57 4.4 WNW 33 52 18 28 1007.1 1006.9 0.0
04/11:43am 17.2 11.4 7.8 54 4.8 WNW 28 52 15 28 1007.5 - 0.0
04/11:30am 17.3 11.5 8.0 54 4.8 WNW 28 41 15 22 1007.6 - 0.0
04/11:00am 16.7 10.8 9.1 61 4.0 WNW 30 50 16 27 1008.1 - 0.0
04/10:38am 15.7 10.2 9.0 64 3.5 W 28 46 15 25 1008.4 - 0.0
04/10:30am 16.1 10.1 8.5 60 3.9 W 30 46 16 25 1008.4 - 0.0
04/10:29am 16.0 10.3 8.4 60 3.9 W 28 46 15 25 1008.4 - 0.0
04/10:00am 15.8 10.8 8.2 60 3.9 W 24 39 13 21 1008.6 - 0.0
04/09:30am 15.7 12.3 9.0 64 3.5 WNW 17 28 9 15 1008.8 - 0.0
04/09:00am 14.7 10.2 8.4 66 3.2 W 22 35 12 19 1008.9 1008.7 0.0
04/08:30am 13.6 9.7 8.5 71 2.6 WNW 19 33 10 18 1008.9 - 0.0
04/08:00am 13.4 9.2 8.2 71 2.6 W 20 35 11 19 1009.0 - 0.0
04/07:30am 13.5 9.4 7.9 69 2.8 W 19 32 10 17 1008.9 - 0.0
04/07:00am 13.6 9.2 7.6 67 3.0 WNW 20 35 11 19 1008.8 - 0.0
04/06:30am 13.1 9.8 6.3 63 3.3 WNW 13 22 7 12 1008.7 - 0.0
04/06:00am 12.8 9.6 5.1 59 3.6 W 11 17 6 9 1009.0 1008.8 0.0
04/05:30am 12.8 8.8 4.9 58 3.7 WNW 15 24 8 13 1009.0 - 0.0
04/05:00am 12.7 8.3 5.0 59 3.6 W 17 32 9 17 1009.3 - 0.0
04/04:30am 12.5 8.8 6.2 65 3.0 WNW 15 20 8 11 1009.3 - 0.0
04/04:00am 12.6 9.2 5.9 63 3.2 W 13 24 7 13 1009.6 - 0.0
04/03:30am 12.6 8.5 6.1 64 3.1 W 17 30 9 16 1009.7 - 0.0
04/03:00am 12.5 9.5 6.0 64 3.1 W 11 19 6 10 1010.2 1010.0 0.0
04/02:30am 12.4 8.7 6.1 65 3.0 WNW 15 24 8 13 1010.5 - 0.0
04/02:00am 12.3 9.3 5.8 64 3.1 WNW 11 15 6 8 1010.9 - 0.0
04/01:30am 12.4 9.1 4.6 59 3.6 WNW 11 17 6 9 1011.2 - 0.0
04/01:00am 12.7 9.2 3.7 54 4.1 WNW 11 22 6 12 1011.6 - 0.0
04/12:30am 12.4 8.9 3.5 54 4.0 WNW 11 13 6 7 1011.9 - 0.0
04/12:00am 12.0 8.5 3.6 56 3.8 WNW 11 13 6 7 1012.3 1012.1 0.0
 
Date/Time
EDT
Temp
°C
App
Temp
°C
Dew
Point
Rel
Hum
%
Delta-T
°C
Wind Press
QNH
hPa
Press
MSL
hPa
Rain
since 9 am
mm
Dir
 
Spd
km/h
Gust
km/h
Spd
kts
Gust
kts
03/11:30pm 12.5 8.5 3.1 52 4.2 W 13 26 7 14 1012.4 - 0.0
03/11:00pm 12.6 7.5 3.2 52 4.2 WNW 19 30 10 16 1012.5 - 0.0
03/10:30pm 12.7 8.3 4.5 57 3.8 W 17 26 9 14 1012.4 - 0.0
03/10:00pm 12.6 10.1 6.4 66 3.0 W 9 17 5 9 1012.5 - 0.0
03/09:30pm 13.1 10.6 6.7 65 3.1 WNW 9 17 5 9 1012.5 - 0.0
03/09:00pm 13.4 11.0 6.8 64 3.2 W 9 15 5 8 1012.5 1012.3 0.0
03/08:30pm 13.9 11.0 6.7 62 3.5 WNW 11 17 6 9 1012.2 - 0.0
03/08:00pm 14.7 11.8 6.5 58 4.0 WNW 11 19 6 10 1012.1 - 0.0
03/07:30pm 15.5 12.2 6.6 55 4.4 WNW 13 20 7 11 1012.0 - 0.0
03/07:00pm 16.5 11.8 6.1 50 5.1 WNW 20 30 11 16 1012.1 - 0.0
03/06:30pm 17.3 12.8 7.0 50 5.2 WNW 20 35 11 19 1012.0 - 0.0
03/06:00pm 17.2 12.6 6.6 49 5.3 NW 20 32 11 17 1012.2 1012.0 0.0
03/05:30pm 18.5 14.5 8.1 50 5.4 WNW 19 30 10 16 1012.2 - 0.0
03/05:00pm 17.7 13.0 7.7 52 5.1 NW 22 33 12 18 1012.3 - 0.0
03/04:30pm 17.3 12.3 8.2 55 4.7 NW 24 37 13 20 1012.5 - 0.0
03/04:00pm 19.3 14.8 8.7 50 5.6 NW 22 37 12 20 1012.7 - 0.0
03/03:30pm 18.4 13.4 8.2 51 5.3 NW 24 44 13 24 1012.9 - 0.0
03/03:00pm 18.2 14.0 8.2 52 5.2 NNW 20 35 11 19 1013.2 1013.0 0.0
03/02:30pm 19.7 14.6 7.7 45 6.2 NW 24 35 13 19 1013.5 - 0.0
03/02:00pm 20.4 15.9 5.9 38 7.3 NNW 19 28 10 15 1013.3 - 0.0
03/01:30pm 20.3 16.1 5.7 38 7.3 WNW 17 32 9 17 1013.7 - 0.0
03/01:00pm 19.8 15.9 5.2 38 7.2 W 15 22 8 12 1014.0 - 0.0
03/12:30pm 19.4 16.5 6.5 43 6.5 WNW 11 20 6 11 1014.2 - 0.0
03/12:00pm 19.5 16.4 7.2 45 6.3 NW 13 24 7 13 1014.6 1014.4 0.0
03/11:30am 18.0 15.1 8.1 52 5.1 WNW 13 20 7 11 1014.9 - 0.0
03/11:00am 16.9 13.7 8.6 58 4.3 NW 15 20 8 11 1015.0 - 0.0
03/10:30am 15.8 14.2 8.6 62 3.7 NNW 7 11 4 6 1015.1 - 0.0
03/10:00am 15.3 13.4 9.1 66 3.2 N 9 13 5 7 1014.9 - 0.0
03/09:30am 14.0 12.6 8.7 70 2.7 NE 6 9 3 5 1014.8 - 0.0
03/09:00am 12.0 10.0 8.6 80 1.7 ENE 9 11 5 6 1014.9 1014.7 0.0
03/08:30am 10.4 8.3 8.2 86 1.1 ENE 9 13 5 7 1014.8 - 0.0
03/08:00am 11.1 9.7 8.9 86 1.1 SE 6 7 3 4 1014.5 - 0.0
03/07:30am 7.3 6.3 5.8 90 0.7 CALM 0 9 0 5 1014.2 - 0.0
03/07:00am 7.7 6.8 6.2 90 0.7 CALM 0 0 0 0 1014.0 - 0.0
03/06:30am 7.7 6.8 6.2 90 0.7 CALM 0 4 0 2 1013.7 - 0.0
03/06:00am 8.4 6.5 6.5 88 0.9 W 6 7 3 4 1013.4 1013.2 0.0
03/05:30am 8.1 6.8 6.1 87 0.9 SW 2 6 1 3 1013.2 - 0.0
03/05:00am 8.5 5.6 6.6 88 0.9 NW 11 15 6 8 1013.1 - 0.0
03/04:30am 9.5 7.0 6.5 81 1.4 NW 9 11 5 6 1013.0 - 0.0
03/04:00am 9.8 7.4 6.9 82 1.4 WNW 9 13 5 7 1012.7 - 0.0
03/03:30am 10.3 7.8 6.7 78 1.7 W 9 13 5 7 1012.7 - 0.0
03/03:00am 10.6 8.8 7.1 79 1.7 W 6 9 3 5 1013.0 1012.7 0.0
03/02:30am 11.2 9.0 7.9 80 1.6 W 9 15 5 8 1013.4 - 0.0
03/02:00am 11.7 10.4 9.1 84 1.3 WNW 6 9 3 5 1013.7 - 0.0
03/01:30am 11.9 10.4 9.1 83 1.4 WNW 7 13 4 7 1014.0 - 0.0
03/01:00am 12.3 10.1 9.2 81 1.6 W 11 19 6 10 1014.3 - 0.0
03/12:30am 12.0 10.8 9.7 86 1.2 W 6 11 3 6 1014.5 - 0.0
03/12:00am 12.1 10.8 9.8 86 1.2 W 7 9 4 5 1014.9 1014.7 0.0
 
Date/Time
EDT
Temp
°C
App
Temp
°C
Dew
Point
Rel
Hum
%
Delta-T
°C
Wind Press
QNH
hPa
Press
MSL
hPa
Rain
since 9 am
mm
Dir
 
Spd
km/h
Gust
km/h
Spd
kts
Gust
kts
02/11:30pm 12.4 10.3 9.9 85 1.3 W 11 17 6 9 1015.3 - 0.0
02/11:00pm 12.0 10.9 10.1 88 1.0 W 6 9 3 5 1015.3 - 0.0
02/10:30pm 12.0 12.1 10.3 89 0.9 CALM 0 0 0 0 1015.2 - 0.0
02/10:00pm 12.3 12.5 10.4 88 1.0 CALM 0 0 0 0 1015.1 - 0.0
02/09:30pm 12.8 12.2 10.3 85 1.3 W 4 7 2 4 1015.6 - 0.0
02/09:00pm 12.7 12.0 10.2 85 1.3 NW 4 7 2 4 1015.4 1015.2 0.0
02/08:30pm 12.7 11.4 10.0 84 1.4 N 7 11 4 6 1015.2 - 0.0
02/08:00pm 13.1 11.8 9.8 80 1.7 WNW 7 11 4 6 1015.1 - 0.0
02/07:30pm 13.3 11.5 9.6 78 1.9 NNW 9 13 5 7 1014.8 - 0.0
02/07:00pm 13.9 12.2 9.7 76 2.2 NW 9 13 5 7 1014.8 - 0.0
02/06:30pm 14.3 12.5 9.3 72 2.6 NW 9 17 5 9 1014.6 - 0.0
02/06:00pm 14.6 12.8 9.4 71 2.7 NW 9 15 5 8 1014.8 1014.6 0.0
02/05:30pm 14.9 12.6 8.9 67 3.1 NW 11 15 6 8 1014.6 - 0.0
02/05:00pm 15.5 13.5 8.7 64 3.5 WNW 9 13 5 7 1014.6 - 0.0
02/04:30pm 16.2 13.5 8.9 62 3.8 NNW 13 17 7 9 1015.1 - 0.0
02/04:00pm 17.1 13.9 8.4 56 4.5 NNW 15 22 8 12 1015.2 - 0.0
02/03:30pm 17.7 14.4 8.0 53 5.0 NW 15 26 8 14 1015.4 - 0.0
02/03:00pm 18.6 15.8 8.7 52 5.2 NW 13 20 7 11 1015.9 1015.7 0.0
02/02:30pm 17.8 14.8 9.3 57 4.5 NNW 15 26 8 14 1016.1 - 0.0
02/02:00pm 17.3 12.9 9.1 58 4.3 N 22 33 12 18 1016.6 - 0.0
02/01:30pm 18.5 14.6 8.5 52 5.2 NNW 19 24 10 13 1016.9 - 0.0
02/01:00pm 17.8 14.1 9.5 58 4.4 NNW 19 24 10 13 1017.0 - 0.0
02/12:30pm 17.1 13.6 10.2 64 3.7 NNW 19 30 10 16 1017.6 - 0.0
02/12:00pm 17.2 14.3 10.9 66 3.4 NNW 17 24 9 13 1018.4 1018.2 0.0
02/11:30am 17.4 14.9 10.9 65 3.5 N 15 26 8 14 1018.7 - 0.0
02/11:00am 16.8 13.8 12.1 74 2.6 N 19 20 10 11 1018.7 - 0.0
02/10:30am 15.6 13.2 11.3 75 2.3 NE 15 22 8 12 1018.6 - 0.0
02/10:00am 15.2 12.7 11.1 76 2.2 NE 15 19 8 10 1018.7 - 0.0
02/09:30am 15.2 11.9 10.9 75 2.3 ENE 19 24 10 13 1018.6 - 0.0
02/09:00am 15.2 12.6 10.7 74 2.4 ENE 15 24 8 13 1018.6 1018.4 0.0
02/08:30am 13.9 11.1 10.1 78 2.0 ENE 15 20 8 11 1018.4 - 0.0
02/08:00am 13.6 11.2 10.2 80 1.8 E 13 17 7 9 1018.1 - 0.0
02/07:30am 11.9 10.1 9.5 85 1.2 E 9 15 5 8 1018.1 - 0.0
02/07:00am 11.4 9.9 9.0 85 1.2 E 7 11 4 6 1017.6 - 0.0
02/06:30am 12.0 10.3 9.7 86 1.2 E 9 13 5 7 1017.2 - 0.0
02/06:00am 11.7 9.6 9.7 87 1.0 ESE 11 13 6 7 1017.3 1017.2 0.0
02/05:30am 11.5 9.4 9.9 90 0.8 SSE 11 13 6 7 1017.3 - 0.0
02/05:00am 10.5 8.7 9.3 92 0.6 SE 9 13 5 7 1017.4 - 0.0
02/04:30am 10.6 8.8 9.6 93 0.5 SE 9 13 5 7 1017.3 - 0.0
02/04:00am 10.7 9.4 9.1 90 0.8 S 6 7 3 4 1017.5 - 0.0
02/03:30am 11.5 9.7 9.5 87 1.0 E 9 13 5 7 1016.9 - 0.0
02/03:00am 11.0 9.1 9.2 89 0.9 E 9 11 5 6 1016.5 1016.3 0.0
02/02:30am 11.2 9.3 9.2 87 1.0 E 9 13 5 7 1016.6 - 0.0
02/02:00am 10.8 9.9 9.2 90 0.8 E 4 9 2 5 1016.5 - 0.0
02/01:30am 11.7 11.2 9.3 85 1.2 ESE 2 7 1 4 1016.4 - 0.0
02/01:00am 12.3 10.9 9.6 83 1.4 E 7 11 4 6 1016.2 - 0.0
02/12:30am 13.2 10.6 9.5 78 1.9 ESE 13 15 7 8 1016.0 - 0.0
02/12:00am 13.8 11.2 9.5 75 2.2 E 13 19 7 10 1016.1 1015.9 0.0
 
Date/Time
EDT
Temp
°C
App
Temp
°C
Dew
Point
Rel
Hum
%
Delta-T
°C
Wind Press
QNH
hPa
Press
MSL
hPa
Rain
since 9 am
mm
Dir
 
Spd
km/h
Gust
km/h
Spd
kts
Gust
kts
01/11:30pm 13.7 10.7 9.4 75 2.2 E 15 17 8 9 1016.1 - 0.0
01/11:00pm 13.7 10.7 9.4 75 2.2 E 15 20 8 11 1015.8 - 0.0
01/10:30pm 13.5 11.0 9.6 77 2.0 E 13 15 7 8 1015.8 - 0.0

Other Formats:

Comma delimited format used in spreadsheet applications
http://www.bom.gov.au/fwo/IDT60801/IDT60801.94972.axf

JavaScript Object Notation format (JSON) in row-major order
http://www.bom.gov.au/fwo/IDT60801/IDT60801.94972.json